Flight Track Log - Related Links

Times and Time Zones

All times are in EST time to prevent confusion due to time zone crossing. See the EJA122 flight status page for this flight to view local times or setup timezone preferences in your user account.

Time Position Orientation Groundspeed Altitude Reporting Facility
EST Latitude Longitude Course Direction KTS MPH feet Rate Location/Type
Fri 03:15:50 PM 41.3031 -72.0539 134° Southeast 195 224 1,600  Level Boston Center
Fri 03:16:15 PM 41.2853 -72.0294 134° Southeast 220 253 2,300 2,093 Climbing Boston Center
Fri 03:17:16 PM 41.2503 -71.9567 123° Southeast 266 306 4,600 2,213 Climbing Boston Center
Fri 03:18:17 PM 41.1969 -72.0017 212° Southwest 253 291 6,800 2,182 Climbing Boston Center
Fri 03:19:17 PM 41.1478 -72.0628 223° Southwest 246 283 9,000 1,636 Climbing Boston Center
Fri 03:20:18 PM 41.0778 -72.0869 195° South 256 295 10,100 1,610 Climbing Boston Center
Fri 03:21:20 PM 40.9978 -72.1164 196° South 293 337 12,300 2,496 Climbing Boston Center
Fri 03:22:23 PM 40.9475 -72.2097 235° Southwest 269 310 15,300 2,419 Climbing Boston Center
Fri 03:23:24 PM 40.9189 -72.3008 247° West 269 310 17,300 2,016 Climbing Boston Center
Fri 03:24:25 PM 40.8889 -72.3950 247° West 271 312 19,400 2,177 Climbing Boston Center
Fri 03:25:28 PM 40.8606 -72.4858 248° West 268 308 21,800 2,000 Climbing Boston Center
Fri 03:26:28 PM 40.8328 -72.5722 247° West 259 298 23,500 1,388 Climbing Boston Center
Fri 03:27:29 PM 40.8039 -72.6656 248° West 269 310 24,600 1,008 Climbing Boston Center
Fri 03:28:33 PM 40.7728 -72.7597 246° West 282 325 25,600 1,056 Climbing Boston Center
Fri 03:29:34 PM 40.7386 -72.8692 248° West 292 336 26,800 1,140 Climbing Boston Center
Fri 03:30:34 PM 40.7086 -72.9625 247° West 295 339 27,900 1,190 Climbing Boston Center
Fri 03:31:35 PM 40.6744 -73.0617 246° West 299 344 29,200 1,230 Climbing Boston Center
Fri 03:32:36 PM 40.6403 -73.1611 246° West 298 343 30,400 1,122 Climbing Boston Center
Fri 03:33:38 PM 40.6103 -73.2597 248° West 293 337 31,500 768 Climbing Boston Center
Fri 03:34:41 PM 40.5878 -73.3881 257° West 299 344 32,000 244 Climbing Boston Center
Fri 03:35:41 PM 40.5631 -73.5139 256° West 305 351 32,000  Level New York Center
Fri 03:36:41 PM 40.5292 -73.6297 249° West 327 376 32,000  Level New York Center
Fri 03:37:41 PM 40.4539 -73.7275 225° Southwest 354 407 32,000  Level New York Center
Fri 03:38:41 PM 40.3764 -73.8197 222° Southwest 371 427 32,000  Level New York Center
Fri 03:40:51 PM 40.2278 -73.9992 223° Southwest 380 437 32,000  Level Washington Center
Fri 03:41:49 PM 40.1542 -74.0906 224° Southwest 374 430 32,000  Level Washington Center
Fri 03:42:50 PM 40.0822 -74.1769 223° Southwest 367 422 32,000  Level Boston Center
Fri 03:43:50 PM 40.0042 -74.2725 223° Southwest 369 425 32,000  Level Washington Center
Fri 03:44:51 PM 39.9281 -74.3631 222° Southwest 369 425 32,000  Level Washington Center
Fri 03:45:49 PM 39.8519 -74.4564 223° Southwest 374 430 32,000  Level Washington Center
Fri 03:46:49 PM 39.7736 -74.5494 222° Southwest 374 430 32,000  Level Washington Center
Fri 03:47:51 PM 39.6972 -74.6422 223° Southwest 374 430 32,000  Level Washington Center
Fri 03:48:51 PM 39.6186 -74.7322 221° Southwest 374 430 32,000  Level Washington Center
Fri 03:49:49 PM 39.5422 -74.8247 223° Southwest 374 430 32,000  Level Washington Center
Fri 03:50:50 PM 39.4678 -74.9142 223° Southwest 374 430 32,000  Level Washington Center
Fri 03:51:51 PM 39.3911 -75.0061 223° Southwest 374 430 32,000  Level Washington Center
Fri 03:52:49 PM 39.3125 -75.0925 220° Southwest 369 425 32,000  Level Washington Center
Fri 03:53:49 PM 39.2147 -75.1469 203° Southwest 374 430 32,000  Level Washington Center
Fri 03:54:51 PM 39.1106 -75.1878 197° South 385 443 32,000  Level Washington Center
Fri 03:55:51 PM 39.0044 -75.2389 201° Southwest 393 452 32,000  Level Washington Center
Fri 03:56:49 PM 38.9025 -75.2822 198° South 399 459 32,000  Level Washington Center
Fri 03:57:50 PM 38.7942 -75.3225 196° South 399 459 32,000  Level Washington Center
Fri 03:58:51 PM 38.6900 -75.3631 197° South 404 465 32,000  Level Washington Center
Fri 03:59:51 PM 38.5858 -75.4111 200° South 404 465 32,000  Level Washington Center
Fri 04:00:49 PM 38.4817 -75.4564 199° South 404 465 32,000  Level Washington Center
Fri 04:01:49 PM 38.3775 -75.4989 198° South 404 465 32,000  Level Washington Center
Fri 04:02:49 PM 38.2858 -75.5653 210° Southwest 393 452 32,000  Level Washington Center
Fri 04:03:51 PM 38.2003 -75.6472 217° Southwest 384 442 32,000  Level Washington Center
Fri 04:04:49 PM 38.1189 -75.7264 217° Southwest 384 442 32,000 -254 Level Washington Center
Fri 04:05:49 PM 38.0353 -75.8106 218° Southwest 384 442 31,500 -1,041 Descending Washington Center
Fri 04:06:50 PM 37.9517 -75.8867 216° Southwest 384 442 29,900 -1,574 Descending Washington Center
Fri 04:07:51 PM 37.8661 -75.9681 217° Southwest 384 442 28,300 -1,613 Descending Washington Center
Fri 04:08:49 PM 37.7822 -76.0464 216° Southwest 389 448 26,700 -1,361 Descending Washington Center
Fri 04:09:50 PM 37.6986 -76.1297 218° Southwest 389 448 25,600 -1,033 Descending Washington Center
Fri 04:10:51 PM 37.6064 -76.2131 216° Southwest 394 453 24,600 -807 Descending Washington Center
Fri 04:11:49 PM 37.5206 -76.2936 217° Southwest 394 453 24,000 -303 Descending Washington Center
Fri 04:12:50 PM 37.4322 -76.3739 216° Southwest 399 459 24,000  Level Washington Center
Fri 04:13:50 PM 37.3442 -76.4592 218° Southwest 399 459 24,000  Level Washington Center
Fri 04:14:51 PM 37.2539 -76.5389 215° Southwest 399 459 24,000  Level Washington Center
Fri 04:15:49 PM 37.1656 -76.6239 217° Southwest 399 459 24,000 -661 Level Washington Center
Fri 04:16:49 PM 37.0772 -76.7033 216° Southwest 399 459 22,700 -984 Descending Washington Center
Fri 04:17:51 PM 36.9867 -76.7881 217° Southwest 404 465 22,000 -350 Descending Washington Center
Fri 04:18:49 PM 36.8983 -76.8697 216° Southwest 404 465 22,000  Level Washington Center
Fri 04:19:49 PM 36.8139 -76.9486 217° Southwest 404 465 22,000 -694 Level Washington Center
Fri 04:20:50 PM 36.7275 -77.0303 217° Southwest 399 459 20,600 -1,574 Descending Washington Center
Fri 04:21:51 PM 36.6408 -77.1089 216° Southwest 394 453 18,800 -1,613 Descending Washington Center
Fri 04:22:49 PM 36.5586 -77.1822 216° Southwest 382 440 17,400 -908 Descending Washington Center
Fri 04:23:50 PM 36.4806 -77.2556 217° Southwest 371 427 17,000 -1,091 Descending Washington Center
Fri 04:24:50 PM 36.4022 -77.3236 215° Southwest 366 421 15,200 -1,835 Descending Washington Center
Fri 04:25:51 PM 36.3242 -77.3939 216° Southwest 355 409 13,300 -2,017 Descending Washington Center
Fri 04:26:49 PM 36.2522 -77.4594 216° Southwest 344 396 11,200 -1,900 Descending Washington Center
Fri 04:27:51 PM 36.1864 -77.5194 216° Southwest 309 356 9,500 -1,623 Descending Washington Center
Fri 04:28:51 PM 36.1336 -77.5672 216° Southwest 265 305 7,900 -1,678 Descending Washington Center
Fri 04:29:49 PM 36.0889 -77.6200 224° Southwest 241 277 6,200 -1,513 Descending Washington Center
Fri 04:30:50 PM 36.0503 -77.6756 229° Southwest 221 254 4,900 -1,180 Descending Washington Center
Fri 04:31:51 PM 36.0161 -77.7208 227° Southwest 204 235 3,800 -1,082 Descending Washington Center

Login

Don't have an account? Register now (free) for customized features, flight alerts, and more!